Time,TemperatureF,DewpointF,PressureIn,WindDirection,WindDirectionDegrees,WindSpeedMPH,WindSpeedGustMPH,Humidity,HourlyPrecipIn,Conditions,Clouds,dailyrainin,SoftwareType,DateUTC
2013-04-29 00:02:00,43.0,28.0,-100.00,SSE,166,1.0,2.0,56,-99.99,,,-99.99,,2013-04-29 06:02:00,
2013-04-29 00:11:00,43.0,28.0,-100.00,SSE,166,1.0,2.0,56,-99.99,,,-99.99,,2013-04-29 06:11:00,
2013-04-29 00:21:00,42.0,29.0,-100.00,SSW,200,1.0,1.0,59,-99.99,,,-99.99,,2013-04-29 06:21:00,
2013-04-29 00:32:00,42.0,29.0,-100.00,SSW,200,1.0,1.0,59,-99.99,,,-99.99,,2013-04-29 06:32:00,
2013-04-29 00:42:00,42.0,29.0,-100.00,SSW,200,1.0,1.0,59,-99.99,,,-99.99,,2013-04-29 06:42:00,
2013-04-29 01:32:00,40.0,28.0,-100.00,SE,146,1.0,3.0,63,-99.99,,,-99.99,,2013-04-29 07:32:00,
2013-04-29 01:41:00,40.0,28.0,-100.00,SE,146,1.0,3.0,63,-99.99,,,-99.99,,2013-04-29 07:41:00,
2013-04-29 01:52:00,39.0,28.0,-100.00,WSW,254,1.0,2.0,65,-99.99,,,-99.99,,2013-04-29 07:52:00,
2013-04-29 02:02:00,40.0,28.0,-100.00,SSW,200,1.0,2.0,63,-99.99,,,-99.99,,2013-04-29 08:02:00,
2013-04-29 02:11:00,40.0,28.0,-100.00,SSW,200,1.0,2.0,63,-99.99,,,-99.99,,2013-04-29 08:11:00,
2013-04-29 02:21:00,40.0,28.0,-100.00,SE,128,1.0,2.0,63,-99.99,,,-99.99,,2013-04-29 08:21:00,
2013-04-29 02:31:00,38.0,28.0,-100.00,SSE,148,1.0,5.0,68,-99.99,,,-99.99,,2013-04-29 08:31:00,
2013-04-29 02:42:00,38.0,28.0,-100.00,SSE,148,1.0,5.0,68,-99.99,,,-99.99,,2013-04-29 08:42:00,
2013-04-29 02:51:00,37.0,29.0,-100.00,SSE,161,1.0,2.0,72,-99.99,,,-99.99,,2013-04-29 08:51:00,
2013-04-29 03:01:00,36.0,29.0,-100.00,South,171,0.0,1.0,76,-99.99,,,-99.99,,2013-04-29 09:01:00,
2013-04-29 03:11:00,36.0,29.0,-100.00,South,171,0.0,1.0,76,-99.99,,,-99.99,,2013-04-29 09:11:00,
2013-04-29 03:21:00,37.0,29.0,-100.00,WSW,250,1.0,2.0,73,-99.99,,,-99.99,,2013-04-29 09:21:00,
2013-04-29 03:32:00,39.0,29.0,-100.00,SSE,152,2.0,4.0,66,-99.99,,,-99.99,,2013-04-29 09:32:00,
2013-04-29 03:42:00,39.0,29.0,-100.00,SSE,152,2.0,4.0,66,-99.99,,,-99.99,,2013-04-29 09:42:00,
2013-04-29 03:52:00,39.0,29.0,-100.00,SW,226,0.0,1.0,68,-99.99,,,-99.99,,2013-04-29 09:52:00,
2013-04-29 04:02:00,37.0,28.0,-100.00,SW,229,1.0,4.0,71,-99.99,,,-99.99,,2013-04-29 10:02:00,
2013-04-29 04:12:00,37.0,28.0,-100.00,SW,229,1.0,4.0,71,-99.99,,,-99.99,,2013-04-29 10:12:00,
2013-04-29 04:23:00,37.0,29.0,-100.00,West,274,2.0,4.0,72,-99.99,,,-99.99,,2013-04-29 10:23:00,
2013-04-29 04:32:00,36.0,28.0,-100.00,NE,40,0.0,1.0,73,-99.99,,,-99.99,,2013-04-29 10:32:00,
2013-04-29 04:42:00,36.0,28.0,-100.00,NE,40,0.0,1.0,73,-99.99,,,-99.99,,2013-04-29 10:42:00,
2013-04-29 04:52:00,37.0,28.0,-100.00,SSW,202,1.0,3.0,69,-99.99,,,-99.99,,2013-04-29 10:52:00,
2013-04-29 05:02:00,37.0,28.0,-100.00,ENE,76,1.0,2.0,69,-99.99,,,-99.99,,2013-04-29 11:02:00,
2013-04-29 05:12:00,37.0,28.0,-100.00,ENE,76,1.0,2.0,69,-99.99,,,-99.99,,2013-04-29 11:12:00,
2013-04-29 05:21:00,37.0,28.0,-100.00,ESE,123,1.0,2.0,69,-99.99,,,-99.99,,2013-04-29 11:21:00,
2013-04-29 05:32:00,36.0,26.0,-100.00,South,186,2.0,2.0,67,-99.99,,,-99.99,,2013-04-29 11:32:00,
2013-04-29 05:41:00,36.0,26.0,-100.00,South,186,2.0,2.0,67,-99.99,,,-99.99,,2013-04-29 11:41:00,
2013-04-29 05:52:00,36.0,26.0,-100.00,SSW,212,1.0,2.0,68,-99.99,,,-99.99,,2013-04-29 11:52:00,
2013-04-29 06:01:00,37.0,26.0,-100.00,SW,236,1.0,2.0,64,-99.99,,,-99.99,,2013-04-29 12:01:00,
2013-04-29 06:12:00,37.0,26.0,-100.00,SW,236,1.0,2.0,64,-99.99,,,-99.99,,2013-04-29 12:12:00,
2013-04-29 06:21:00,36.0,25.0,-100.00,SW,223,1.0,3.0,63,-99.99,,,-99.99,,2013-04-29 12:21:00,
2013-04-29 06:31:00,36.0,25.0,-100.00,SW,223,1.0,3.0,63,-99.99,,,-99.99,,2013-04-29 12:31:00,
2013-04-29 06:41:00,36.0,25.0,-100.00,SW,223,1.0,3.0,63,-99.99,,,-99.99,,2013-04-29 12:41:00,
2013-04-29 06:52:00,36.0,24.0,-100.00,South,180,2.0,2.0,62,-99.99,,,-99.99,,2013-04-29 12:52:00,
2013-04-29 07:01:00,37.0,24.0,-100.00,South,191,1.0,2.0,58,-99.99,,,-99.99,,2013-04-29 13:01:00,
2013-04-29 07:11:00,37.0,24.0,-100.00,South,191,1.0,2.0,58,-99.99,,,-99.99,,2013-04-29 13:11:00,
2013-04-29 07:21:00,37.0,23.0,-100.00,South,185,1.0,3.0,56,-99.99,,,-99.99,,2013-04-29 13:21:00,
2013-04-29 07:31:00,38.0,21.0,-100.00,SSE,158,2.0,4.0,49,-99.99,,,-99.99,,2013-04-29 13:31:00,
2013-04-29 07:42:00,38.0,21.0,-100.00,SSE,158,2.0,4.0,49,-99.99,,,-99.99,,2013-04-29 13:42:00,
2013-04-29 07:52:00,41.0,21.0,-100.00,SSE,161,3.0,10.0,44,-99.99,,,-99.99,,2013-04-29 13:52:00,
2013-04-29 08:01:00,38.0,21.0,-100.00,SE,141,2.0,4.0,50,-99.99,,,-99.99,,2013-04-29 14:01:00,
2013-04-29 08:11:00,38.0,21.0,-100.00,SE,141,2.0,4.0,50,-99.99,,,-99.99,,2013-04-29 14:11:00,
2013-04-29 08:21:00,40.0,21.0,-100.00,South,175,1.0,3.0,46,-99.99,,,-99.99,,2013-04-29 14:21:00,
2013-04-29 08:32:00,43.0,20.0,-100.00,NNW,331,3.0,5.0,39,-99.99,,,-99.99,,2013-04-29 14:32:00,
2013-04-29 08:42:00,43.0,20.0,-100.00,NNW,331,3.0,5.0,39,-99.99,,,-99.99,,2013-04-29 14:42:00,
2013-04-29 08:51:00,44.0,22.0,-100.00,NW,326,0.0,3.0,42,-99.99,,,-99.99,,2013-04-29 14:51:00,
2013-04-29 09:01:00,44.0,23.0,-100.00,South,172,1.0,2.0,44,-99.99,,,-99.99,,2013-04-29 15:01:00,
2013-04-29 09:12:00,44.0,23.0,-100.00,South,172,1.0,2.0,44,-99.99,,,-99.99,,2013-04-29 15:12:00,
2013-04-29 09:21:00,46.0,20.0,-100.00,NW,320,4.0,7.0,35,-99.99,,,-99.99,,2013-04-29 15:21:00,
2013-04-29 09:33:00,47.0,21.0,-100.00,SE,145,2.0,6.0,35,-99.99,,,-99.99,,2013-04-29 15:33:00,
2013-04-29 09:42:00,47.0,21.0,-100.00,SE,145,2.0,6.0,35,-99.99,,,-99.99,,2013-04-29 15:42:00,
2013-04-29 09:52:00,48.0,20.0,-100.00,NNE,15,2.0,7.0,33,-99.99,,,-99.99,,2013-04-29 15:52:00,
2013-04-29 10:02:00,49.0,21.0,-100.00,South,176,2.0,6.0,33,-99.99,,,-99.99,,2013-04-29 16:02:00,
2013-04-29 10:12:00,49.0,21.0,-100.00,South,176,2.0,6.0,33,-99.99,,,-99.99,,2013-04-29 16:12:00,
2013-04-29 10:23:00,49.0,21.0,-100.00,SE,124,2.0,3.0,33,-99.99,,,-99.99,,2013-04-29 16:23:00,
2013-04-29 10:32:00,48.0,22.0,-100.00,SSW,211,2.0,4.0,36,-99.99,,,-99.99,,2013-04-29 16:32:00,
2013-04-29 10:42:00,48.0,22.0,-100.00,SSW,211,2.0,4.0,36,-99.99,,,-99.99,,2013-04-29 16:42:00,
2013-04-29 10:52:00,48.0,22.0,-100.00,ENE,66,1.0,3.0,35,-99.99,,,-99.99,,2013-04-29 16:52:00,
2013-04-29 11:02:00,50.0,23.0,-100.00,ESE,122,1.0,3.0,35,-99.99,,,-99.99,,2013-04-29 17:02:00,
2013-04-29 11:12:00,50.0,23.0,-100.00,ESE,122,1.0,3.0,35,-99.99,,,-99.99,,2013-04-29 17:12:00,
2013-04-29 11:22:00,48.0,22.0,-100.00,NNW,331,3.0,8.0,35,-99.99,,,-99.99,,2013-04-29 17:22:00,
2013-04-29 11:31:00,49.0,23.0,-100.00,NNE,13,2.0,4.0,35,-99.99,,,-99.99,,2013-04-29 17:31:00,
2013-04-29 11:42:00,49.0,23.0,-100.00,NNE,13,2.0,4.0,35,-99.99,,,-99.99,,2013-04-29 17:42:00,
2013-04-29 11:52:00,50.0,23.0,-100.00,North,354,2.0,6.0,34,-99.99,,,-99.99,,2013-04-29 17:52:00,
2013-04-29 12:01:00,49.0,23.0,-100.00,NNW,332,5.0,9.0,36,-99.99,,,-99.99,,2013-04-29 18:01:00,
2013-04-29 12:13:00,49.0,23.0,-100.00,NNW,332,5.0,9.0,36,-99.99,,,-99.99,,2013-04-29 18:13:00,
2013-04-29 12:22:00,49.0,23.0,-100.00,NNW,336,3.0,6.0,36,-99.99,,,-99.99,,2013-04-29 18:22:00,
2013-04-29 12:31:00,49.0,23.0,-100.00,NNW,336,3.0,6.0,36,-99.99,,,-99.99,,2013-04-29 18:31:00,
2013-04-29 12:41:00,49.0,23.0,-100.00,NNW,336,3.0,6.0,36,-99.99,,,-99.99,,2013-04-29 18:41:00,
2013-04-29 12:52:00,51.0,24.0,-100.00,NNW,334,2.0,7.0,34,-99.99,,,-99.99,,2013-04-29 18:52:00,
2013-04-29 13:01:00,51.0,24.0,-100.00,North,359,3.0,7.0,34,-99.99,,,-99.99,,2013-04-29 19:01:00,
2013-04-29 13:11:00,51.0,24.0,-100.00,North,359,3.0,7.0,34,-99.99,,,-99.99,,2013-04-29 19:11:00,
2013-04-29 13:21:00,51.0,24.0,-100.00,NW,326,2.0,5.0,35,-99.99,,,-99.99,,2013-04-29 19:21:00,
2013-04-29 13:31:00,51.0,24.0,-100.00,NW,326,2.0,5.0,35,-99.99,,,-99.99,,2013-04-29 19:31:00,
2013-04-29 13:41:00,51.0,24.0,-100.00,NW,326,2.0,5.0,35,-99.99,,,-99.99,,2013-04-29 19:41:00,
2013-04-29 13:52:00,53.0,25.0,-100.00,NNW,332,3.0,12.0,34,-99.99,,,-99.99,,2013-04-29 19:52:00,
2013-04-29 14:02:00,52.0,25.0,-100.00,NNW,344,3.0,8.0,34,-99.99,,,-99.99,,2013-04-29 20:02:00,
2013-04-29 14:11:00,52.0,25.0,-100.00,NNW,344,3.0,8.0,34,-99.99,,,-99.99,,2013-04-29 20:11:00,
2013-04-29 14:21:00,54.0,26.0,-100.00,SSW,194,1.0,4.0,34,-99.99,,,-99.99,,2013-04-29 20:21:00,
2013-04-29 14:32:00,52.0,27.0,-100.00,SE,136,3.0,8.0,37,-99.99,,,-99.99,,2013-04-29 20:32:00,
2013-04-29 14:42:00,52.0,27.0,-100.00,SE,136,3.0,8.0,37,-99.99,,,-99.99,,2013-04-29 20:42:00,
2013-04-29 14:52:00,53.0,27.0,-100.00,NW,326,6.0,14.0,36,-99.99,,,-99.99,,2013-04-29 20:52:00,
2013-04-29 15:01:00,54.0,28.0,-100.00,SE,129,3.0,5.0,36,-99.99,,,-99.99,,2013-04-29 21:01:00,
2013-04-29 15:11:00,54.0,28.0,-100.00,SE,129,3.0,5.0,36,-99.99,,,-99.99,,2013-04-29 21:11:00,
2013-04-29 15:21:00,53.0,28.0,-100.00,North,4,5.0,11.0,38,-99.99,,,-99.99,,2013-04-29 21:21:00,
2013-04-29 15:33:00,53.0,28.0,-100.00,North,4,5.0,11.0,38,-99.99,,,-99.99,,2013-04-29 21:33:00,
2013-04-29 15:42:00,53.0,28.0,-100.00,North,4,5.0,11.0,38,-99.99,,,-99.99,,2013-04-29 21:42:00,
2013-04-29 15:53:00,54.0,28.0,-100.00,NNW,329,2.0,3.0,36,-99.99,,,-99.99,,2013-04-29 21:53:00,
2013-04-29 16:02:00,54.0,28.0,-100.00,South,172,2.0,6.0,37,-99.99,,,-99.99,,2013-04-29 22:02:00,
2013-04-29 16:13:00,54.0,28.0,-100.00,South,172,2.0,6.0,37,-99.99,,,-99.99,,2013-04-29 22:13:00,
2013-04-29 16:23:00,56.0,29.0,-100.00,SSW,198,2.0,6.0,35,-99.99,,,-99.99,,2013-04-29 22:23:00,
2013-04-29 16:32:00,55.0,29.0,-100.00,North,352,1.0,3.0,36,-99.99,,,-99.99,,2013-04-29 22:32:00,
2013-04-29 16:42:00,55.0,29.0,-100.00,North,352,1.0,3.0,36,-99.99,,,-99.99,,2013-04-29 22:42:00,
2013-04-29 16:52:00,55.0,29.0,-100.00,NNE,14,1.0,2.0,37,-99.99,,,-99.99,,2013-04-29 22:52:00,
2013-04-29 17:02:00,55.0,29.0,-100.00,NNW,337,3.0,9.0,37,-99.99,,,-99.99,,2013-04-29 23:02:00,
2013-04-29 17:11:00,55.0,29.0,-100.00,NNW,337,3.0,9.0,37,-99.99,,,-99.99,,2013-04-29 23:11:00,
2013-04-29 17:22:00,54.0,28.0,-100.00,SE,140,3.0,6.0,37,-99.99,,,-99.99,,2013-04-29 23:22:00,
2013-04-29 17:32:00,55.0,29.0,-100.00,NNE,20,1.0,2.0,36,-99.99,,,-99.99,,2013-04-29 23:32:00,
2013-04-29 17:42:00,55.0,29.0,-100.00,NNE,20,1.0,2.0,36,-99.99,,,-99.99,,2013-04-29 23:42:00,
2013-04-29 17:52:00,54.0,29.0,-100.00,SE,127,1.0,3.0,38,-99.99,,,-99.99,,2013-04-29 23:52:00,
2013-04-29 18:01:00,54.0,28.0,-100.00,SSE,159,1.0,3.0,36,-99.99,,,-99.99,,2013-04-30 00:01:00,
2013-04-29 18:11:00,54.0,28.0,-100.00,SSE,159,1.0,3.0,36,-99.99,,,-99.99,,2013-04-30 00:11:00,
2013-04-29 18:21:00,54.0,27.0,-100.00,WNW,299,2.0,5.0,35,-99.99,,,-99.99,,2013-04-30 00:21:00,
2013-04-29 18:30:00,54.0,28.0,-100.00,SE,146,2.0,3.0,36,-99.99,,,-99.99,,2013-04-30 00:30:00,
2013-04-29 18:32:00,54.0,27.0,-100.00,WNW,299,2.0,5.0,35,-99.99,,,-99.99,,2013-04-30 00:32:00,
2013-04-29 18:41:00,54.0,27.0,-100.00,WNW,299,2.0,5.0,35,-99.99,,,-99.99,,2013-04-30 00:41:00,
2013-04-29 19:01:00,54.0,28.0,-100.00,SE,146,2.0,3.0,36,-99.99,,,-99.99,,2013-04-30 01:01:00,
2013-04-29 19:11:00,54.0,28.0,-100.00,SE,146,2.0,3.0,36,-99.99,,,-99.99,,2013-04-30 01:11:00,
2013-04-29 19:21:00,54.0,28.0,-100.00,SE,146,2.0,3.0,36,-99.99,,,-99.99,,2013-04-30 01:21:00,
2013-04-29 19:52:00,53.0,29.0,-100.00,NNW,348,2.0,5.0,40,-99.99,,,-99.99,,2013-04-30 01:52:00,
2013-04-29 20:01:00,48.0,29.0,-100.00,South,189,1.0,2.0,48,-99.99,,,-99.99,,2013-04-30 02:01:00,
2013-04-29 20:11:00,48.0,29.0,-100.00,South,189,1.0,2.0,48,-99.99,,,-99.99,,2013-04-30 02:11:00,
2013-04-29 20:21:00,46.0,31.0,-100.00,SSW,202,1.0,3.0,56,-99.99,,,-99.99,,2013-04-30 02:21:00,
2013-04-29 20:31:00,46.0,31.0,-100.00,SSW,202,1.0,3.0,56,-99.99,,,-99.99,,2013-04-30 02:31:00,
2013-04-29 20:41:00,46.0,31.0,-100.00,SSW,202,1.0,3.0,56,-99.99,,,-99.99,,2013-04-30 02:41:00,
2013-04-29 21:01:00,44.0,31.0,-100.00,SW,218,1.0,4.0,60,-99.99,,,-99.99,,2013-04-30 03:01:00,
2013-04-29 21:11:00,44.0,31.0,-100.00,SW,218,1.0,4.0,60,-99.99,,,-99.99,,2013-04-30 03:11:00,
2013-04-29 21:21:00,43.0,31.0,-100.00,SW,228,1.0,2.0,62,-99.99,,,-99.99,,2013-04-30 03:21:00,
2013-04-29 21:33:00,43.0,31.0,-100.00,SW,228,1.0,2.0,62,-99.99,,,-99.99,,2013-04-30 03:33:00,
2013-04-29 21:42:00,43.0,31.0,-100.00,SW,228,1.0,2.0,62,-99.99,,,-99.99,,2013-04-30 03:42:00,
2013-04-29 22:30:00,49.0,26.0,-100.00,NNE,20,2.0,5.0,41,-99.99,,,-99.99,,2013-04-30 04:30:00,
2013-04-29 23:02:00,49.0,26.0,-100.00,NNE,20,2.0,5.0,41,-99.99,,,-99.99,,2013-04-30 05:02:00,
2013-04-29 23:12:00,49.0,26.0,-100.00,NNE,20,2.0,5.0,41,-99.99,,,-99.99,,2013-04-30 05:12:00,
2013-04-29 23:22:00,49.0,26.0,-100.00,NNE,20,2.0,5.0,41,-99.99,,,-99.99,,2013-04-30 05:22:00,